Time;durP1;ratioP1;P1;durP2;ratioP2;P2;SDS_P1;SDS_P2;PMS_P1;PMS_P2;Temp;Humidity;BMP_temperature;BMP_pressure;BME280_temperature;BME280_humidity;BME280_pressure;Samples;Min_cycle;Max_cycle;Signal;HPM_P1;HPM_P2
2022/05/01 00:00:57;;;;;;;9.48;5.38;;;10.50;99.90;;;;;;5093201;28;20364;-55
2022/05/01 00:03:31;;;;;;;12.75;5.80;;;10.50;99.90;;;;;;5093332;28;20016;-58
2022/05/01 00:06:03;;;;;;;12.70;4.97;;;10.50;99.90;;;;;;5075398;28;20036;-61
2022/05/01 00:08:30;;;;;;;7.78;5.30;;;10.50;99.90;;;;;;5075048;28;20050;-59
2022/05/01 00:10:56;;;;;;;12.50;5.50;;;10.50;99.90;;;;;;5074742;28;20107;-58
2022/05/01 00:13:22;;;;;;;11.63;5.78;;;10.50;99.90;;;;;;5093073;28;20028;-58
2022/05/01 00:15:48;;;;;;;13.18;5.80;;;10.50;99.90;;;;;;5092943;28;20028;-58
2022/05/01 00:18:14;;;;;;;9.30;5.25;;;10.60;99.90;;;;;;5093087;28;20082;-60
2022/05/01 00:20:40;;;;;;;10.75;5.30;;;10.50;99.90;;;;;;5075009;28;20115;-59
2022/05/01 00:23:05;;;;;;;6.45;4.50;;;10.60;99.90;;;;;;5075831;28;20031;-61
2022/05/01 00:25:32;;;;;;;8.82;4.68;;;10.60;99.90;;;;;;5075069;28;20024;-58
2022/05/01 00:27:58;;;;;;;8.90;4.93;;;10.60;99.90;;;;;;5074855;28;20021;-59
2022/05/01 00:30:26;;;;;;;12.27;5.80;;;10.60;99.90;;;;;;5077202;28;20390;-60
2022/05/01 00:38:21;;;;;;;13.98;6.22;;;10.50;99.90;;;;;;5097052;28;20027;-61
2022/05/01 00:40:47;;;;;;;8.55;5.10;;;10.50;99.90;;;;;;5078476;28;20024;-59
2022/05/01 00:43:13;;;;;;;6.63;4.70;;;10.50;99.90;;;;;;5078345;28;20165;-56
2022/05/01 00:45:39;;;;;;;7.35;5.47;;;10.50;99.90;;;;;;5096496;28;20070;-60
2022/05/01 00:48:05;;;;;;;8.40;4.95;;;10.40;99.90;;;;;;5096441;28;20032;-59
2022/05/01 00:50:30;;;;;;;11.13;5.82;;;10.40;99.90;;;;;;5078909;28;20028;-61
2022/05/01 00:52:56;;;;;;;8.50;4.90;;;10.40;99.90;;;;;;5096257;28;20088;-56
2022/05/01 00:55:22;;;;;;;8.63;5.38;;;10.40;99.90;;;;;;5078498;28;20026;-57
2022/05/01 00:57:48;;;;;;;9.30;5.35;;;10.40;99.90;;;;;;5078186;28;20474;-61
2022/05/01 01:00:16;;;;;;;8.10;5.00;;;10.40;99.90;;;;;;5078275;28;20035;-59
2022/05/01 01:02:42;;;;;;;8.38;5.18;;;10.40;99.90;;;;;;5096119;28;20032;-61
2022/05/01 01:05:09;;;;;;;11.15;5.95;;;10.40;99.90;;;;;;5096231;28;20063;-62
2022/05/01 01:07:35;;;;;;;11.45;6.32;;;10.40;99.90;;;;;;5077919;28;20031;-59
2022/05/01 01:10:00;;;;;;;10.23;6.47;;;10.40;99.90;;;;;;5078126;28;20024;-57
2022/05/01 01:15:11;;;;;;;8.65;5.43;;;10.50;99.90;;;;;;5096702;28;20046;-59
2022/05/01 01:17:40;;;;;;;12.70;5.10;;;10.50;99.90;;;;;;5095850;28;20024;-61
2022/05/01 01:20:11;;;;;;;9.43;5.75;;;10.50;99.90;;;;;;5095830;28;20020;-61
2022/05/01 01:22:40;;;;;;;14.93;5.82;;;10.50;99.90;;;;;;5077944;28;20020;-58
2022/05/01 01:25:10;;;;;;;6.82;5.03;;;10.40;99.90;;;;;;5077725;28;20032;-60
2022/05/01 01:27:36;;;;;;;10.25;5.95;;;10.40;99.90;;;;;;5095764;28;20031;-60
2022/05/01 01:32:48;;;;;;;9.65;5.63;;;10.40;99.90;;;;;;5095813;28;20031;-60
2022/05/01 01:35:15;;;;;;;21.48;6.38;;;10.30;99.90;;;;;;5078038;28;20020;-61
2022/05/01 01:37:46;;;;;;;10.07;6.20;;;10.30;99.90;;;;;;5077962;28;20024;-61
2022/05/01 01:40:21;;;;;;;11.13;5.93;;;10.10;99.90;;;;;;5077621;28;20043;-57
2022/05/01 01:42:49;;;;;;;9.45;5.57;;;10.10;99.90;;;;;;5095655;28;20028;-61
2022/05/01 01:45:16;;;;;;;10.18;5.57;;;10.10;99.90;;;;;;5077470;28;20028;-61
2022/05/01 01:47:43;;;;;;;8.40;5.38;;;10.00;99.90;;;;;;5077245;28;20078;-61
2022/05/01 01:50:11;;;;;;;9.93;5.35;;;10.00;99.90;;;;;;5077240;28;20024;-61
2022/05/01 01:52:37;;;;;;;8.65;6.10;;;10.00;99.90;;;;;;5076897;28;20115;-60
2022/05/01 01:55:03;;;;;;;9.90;6.18;;;10.00;99.90;;;;;;5076914;28;20111;-60
2022/05/01 01:57:29;;;;;;;6.00;4.97;;;10.00;99.90;;;;;;5094955;28;20012;-58
2022/05/01 01:59:54;;;;;;;10.75;5.95;;;10.00;99.90;;;;;;5077100;28;20028;-61
2022/05/01 02:02:20;;;;;;;10.05;5.65;;;9.90;99.90;;;;;;5077964;28;20489;-61
2022/05/01 02:04:46;;;;;;;7.97;5.82;;;9.90;99.90;;;;;;5077299;28;20043;-59
2022/05/01 02:07:11;;;;;;;10.70;5.95;;;9.80;99.90;;;;;;5095081;28;20031;-58
2022/05/01 02:09:38;;;;;;;13.27;6.00;;;9.80;99.90;;;;;;5077420;28;20030;-61
2022/05/01 02:12:08;;;;;;;7.63;5.55;;;9.80;99.90;;;;;;5076630;28;20042;-61
2022/05/01 02:14:37;;;;;;;7.32;4.82;;;9.80;99.90;;;;;;5094793;28;20023;-62
2022/05/01 02:17:03;;;;;;;12.82;5.63;;;9.70;99.90;;;;;;5094747;28;20016;-61
2022/05/01 02:19:29;;;;;;;9.00;5.68;;;9.70;99.90;;;;;;5094731;28;20118;-61
2022/05/01 02:21:55;;;;;;;8.43;5.65;;;9.70;99.90;;;;;;5094635;28;20020;-60
2022/05/01 02:24:21;;;;;;;13.75;6.90;;;9.70;99.90;;;;;;5076926;28;20020;-59
2022/05/01 02:26:47;;;;;;;12.70;5.70;;;9.70;99.90;;;;;;5076476;28;20054;-57
2022/05/01 02:29:13;;;;;;;8.13;5.72;;;9.70;99.90;;;;;;5076262;28;20161;-60
2022/05/01 02:31:41;;;;;;;12.45;6.07;;;9.80;99.90;;;;;;5076739;28;20557;-59
2022/05/01 02:34:07;;;;;;;11.02;6.07;;;9.80;99.90;;;;;;5094411;28;20032;-59
2022/05/01 02:36:33;;;;;;;10.80;6.10;;;9.80;99.90;;;;;;5076202;28;20020;-59
2022/05/01 02:38:59;;;;;;;9.50;5.63;;;9.80;99.90;;;;;;5094585;28;20024;-59
2022/05/01 02:41:25;;;;;;;8.23;5.70;;;9.80;99.90;;;;;;5076240;28;20497;-61
2022/05/01 02:43:51;;;;;;;8.07;5.45;;;9.80;99.90;;;;;;5094292;28;20031;-60
2022/05/01 02:46:17;;;;;;;9.02;5.85;;;9.80;99.90;;;;;;5094710;28;20073;-61
2022/05/01 02:48:43;;;;;;;10.15;6.78;;;9.90;99.90;;;;;;5076081;28;20054;-61
2022/05/01 02:51:10;;;;;;;8.32;5.22;;;9.90;99.90;;;;;;5094148;28;20392;-61
2022/05/01 02:53:36;;;;;;;10.85;5.30;;;9.90;99.90;;;;;;5094218;28;20137;-58
2022/05/01 02:56:02;;;;;;;12.52;6.00;;;9.90;99.90;;;;;;5094286;28;20014;-61
2022/05/01 02:58:29;;;;;;;7.95;5.20;;;10.00;99.90;;;;;;5094411;28;20020;-61
2022/05/01 03:00:56;;;;;;;14.48;6.32;;;10.00;99.90;;;;;;5076506;28;20020;-61
2022/05/01 03:03:21;;;;;;;9.13;6.05;;;10.00;99.90;;;;;;5094379;28;20028;-63
2022/05/01 03:05:47;;;;;;;12.18;5.65;;;10.00;99.90;;;;;;5094000;28;20039;-61
2022/05/01 03:08:13;;;;;;;8.73;6.13;;;10.00;99.90;;;;;;5075497;28;20155;-58
2022/05/01 03:10:40;;;;;;;6.93;5.00;;;10.00;99.90;;;;;;5093561;28;20016;-61
2022/05/01 03:13:05;;;;;;;12.57;6.05;;;10.00;99.90;;;;;;5093597;28;20027;-58
2022/05/01 03:15:31;;;;;;;9.18;5.20;;;10.00;99.90;;;;;;5094033;28;20020;-59
2022/05/01 03:23:25;;;;;;;10.32;6.80;;;10.10;99.90;;;;;;5093846;28;20081;-61
2022/05/01 03:25:51;;;;;;;9.50;5.40;;;10.10;99.90;;;;;;5093716;28;20059;-59
2022/05/01 03:28:16;;;;;;;7.55;4.55;;;10.10;99.90;;;;;;5093558;28;20090;-61
2022/05/01 03:30:42;;;;;;;7.55;5.60;;;10.10;99.90;;;;;;5075525;28;20031;-60
2022/05/01 03:33:08;;;;;;;11.18;5.75;;;10.10;99.90;;;;;;5093831;28;20028;-61
2022/05/01 03:35:36;;;;;;;7.50;5.80;;;10.10;99.90;;;;;;5093314;28;20024;-62
2022/05/01 03:38:08;;;;;;;9.32;5.97;;;10.10;99.90;;;;;;5093584;28;20027;-60
2022/05/01 03:40:37;;;;;;;10.95;5.72;;;10.00;99.90;;;;;;5075786;28;20027;-59
2022/05/01 03:43:04;;;;;;;6.95;5.32;;;10.00;99.90;;;;;;5093207;28;20020;-56
2022/05/01 03:45:30;;;;;;;8.88;5.47;;;10.00;99.90;;;;;;5093356;28;20036;-59
2022/05/01 03:47:56;;;;;;;11.07;5.70;;;9.90;99.90;;;;;;5075060;28;20031;-61
2022/05/01 03:50:22;;;;;;;9.25;5.47;;;9.90;99.90;;;;;;5074995;28;20071;-62
2022/05/01 03:52:47;;;;;;;14.25;5.47;;;9.90;99.90;;;;;;5092956;28;20044;-60
2022/05/01 03:55:13;;;;;;;10.15;6.13;;;9.80;99.90;;;;;;5093317;28;20020;-59
2022/05/01 03:57:39;;;;;;;13.52;6.70;;;9.80;99.90;;;;;;5076182;28;20031;-58
2022/05/01 04:00:06;;;;;;;12.45;5.85;;;9.80;99.90;;;;;;5075170;28;20024;-62
2022/05/01 04:02:41;;;;;;;13.07;5.30;;;9.80;99.90;;;;;;5075092;28;20028;-58
2022/05/01 04:05:07;;;;;;;7.43;5.72;;;9.80;99.90;;;;;;5095247;28;20040;-56
2022/05/01 04:07:32;;;;;;;8.35;5.35;;;9.80;99.90;;;;;;5097336;28;20103;-56
2022/05/01 04:09:58;;;;;;;9.55;6.25;;;9.80;99.90;;;;;;5079246;28;20232;-57
2022/05/01 04:12:23;;;;;;;8.77;5.05;;;9.70;99.90;;;;;;5097039;28;20020;-60
2022/05/01 04:14:50;;;;;;;8.32;5.47;;;9.70;99.90;;;;;;5097040;28;20028;-60
2022/05/01 04:17:15;;;;;;;8.15;5.13;;;9.70;99.90;;;;;;5096984;28;20058;-60
2022/05/01 04:19:41;;;;;;;11.25;5.80;;;9.80;99.90;;;;;;5079130;28;20024;-61
2022/05/01 04:22:07;;;;;;;9.32;5.78;;;9.70;99.90;;;;;;5078977;28;20034;-60
2022/05/01 04:24:32;;;;;;;10.15;6.53;;;9.70;99.90;;;;;;5078925;28;20458;-60
2022/05/01 04:26:58;;;;;;;7.35;5.95;;;9.70;99.90;;;;;;5078687;28;20020;-61
2022/05/01 04:29:43;;;;;;;16.35;7.53;;;9.70;99.90;;;;;;5097027;28;20028;-61
2022/05/01 04:32:09;;;;;;;12.93;5.57;;;9.70;99.90;;;;;;5080054;28;20049;-62
2022/05/01 04:34:35;;;;;;;12.05;5.75;;;9.70;99.90;;;;;;5097080;28;20027;-61
2022/05/01 04:37:01;;;;;;;10.60;5.93;;;9.80;99.90;;;;;;5078789;28;20024;-61
2022/05/01 04:39:27;;;;;;;11.32;6.07;;;9.90;99.90;;;;;;5096961;28;20020;-61
2022/05/01 04:41:53;;;;;;;13.05;6.05;;;9.90;99.90;;;;;;5097061;28;20030;-61
2022/05/01 04:44:19;;;;;;;6.95;4.82;;;10.00;99.90;;;;;;5078953;28;20050;-61
2022/05/01 04:46:49;;;;;;;9.23;5.95;;;10.00;99.90;;;;;;5078640;28;20024;-61
2022/05/01 04:49:15;;;;;;;8.88;5.43;;;10.00;99.90;;;;;;5096822;28;20372;-61
2022/05/01 04:51:40;;;;;;;8.88;5.22;;;10.00;99.90;;;;;;5096871;28;20028;-61
2022/05/01 04:54:06;;;;;;;8.95;5.57;;;10.10;99.90;;;;;;5078495;28;20020;-61
2022/05/01 04:59:16;;;;;;;9.75;5.15;;;10.20;99.90;;;;;;5096794;28;20103;-61
2022/05/01 05:01:41;;;;;;;9.45;5.22;;;10.30;99.90;;;;;;5096570;28;20054;-61
2022/05/01 05:04:07;;;;;;;7.25;4.95;;;10.30;99.90;;;;;;5078272;28;20023;-61
2022/05/01 05:06:32;;;;;;;10.07;5.00;;;10.30;99.90;;;;;;5078568;28;20060;-61
2022/05/01 05:11:42;;;;;;;10.27;5.05;;;10.50;99.90;;;;;;5096509;28;20035;-61
2022/05/01 05:14:08;;;;;;;7.53;4.38;;;10.70;99.90;;;;;;5096167;28;20020;-61
2022/05/01 05:16:33;;;;;;;15.48;6.07;;;10.90;99.90;;;;;;5095889;28;20044;-61
2022/05/01 05:18:59;;;;;;;9.45;4.95;;;11.10;99.90;;;;;;5096080;28;20024;-61
2022/05/01 05:21:25;;;;;;;8.18;4.20;;;11.10;99.90;;;;;;5078316;28;20024;-61
2022/05/01 05:23:50;;;;;;;9.70;5.72;;;11.20;99.90;;;;;;5078042;28;20078;-61
2022/05/01 05:26:16;;;;;;;7.53;4.25;;;11.30;99.90;;;;;;5079074;28;20028;-61
2022/05/01 05:28:41;;;;;;;8.82;4.65;;;11.20;99.90;;;;;;5077834;28;20115;-61
2022/05/01 05:31:07;;;;;;;9.52;4.80;;;11.30;99.90;;;;;;5095798;28;20032;-57
2022/05/01 05:33:32;;;;;;;9.30;4.38;;;11.20;99.90;;;;;;5077688;28;20019;-61
2022/05/01 05:35:58;;;;;;;6.00;3.78;;;11.20;99.90;;;;;;5095962;28;20386;-61
2022/05/01 05:38:24;;;;;;;9.65;3.97;;;11.00;99.90;;;;;;5095834;28;20020;-60
2022/05/01 05:40:49;;;;;;;9.73;4.40;;;11.10;99.90;;;;;;5078202;28;20020;-59
2022/05/01 05:43:15;;;;;;;8.18;4.88;;;11.00;99.90;;;;;;5095961;28;20157;-61
2022/05/01 05:45:40;;;;;;;6.32;4.65;;;11.00;99.90;;;;;;5077472;28;20027;-61
2022/05/01 05:48:06;;;;;;;9.73;4.63;;;11.00;99.90;;;;;;5077390;28;20043;-61
2022/05/01 05:50:32;;;;;;;6.28;4.15;;;11.00;99.90;;;;;;5095869;28;20099;-61
2022/05/01 05:53:05;;;;;;;4.55;3.90;;;11.10;99.90;;;;;;5077454;28;20020;-61
2022/05/01 05:55:33;;;;;;;7.93;4.40;;;11.20;99.90;;;;;;5095611;28;20016;-63
2022/05/01 05:58:00;;;;;;;7.78;4.00;;;11.20;99.90;;;;;;5096015;28;20023;-62
2022/05/01 06:00:25;;;;;;;10.30;4.20;;;11.30;99.90;;;;;;5077217;28;20059;-61
2022/05/01 06:02:51;;;;;;;9.43;4.57;;;11.30;99.90;;;;;;5095330;28;20046;-62
2022/05/01 06:05:17;;;;;;;6.05;3.58;;;11.40;99.90;;;;;;5095174;28;20044;-62
2022/05/01 06:07:42;;;;;;;6.75;4.03;;;11.40;99.90;;;;;;5095606;28;20425;-61
2022/05/01 06:10:08;;;;;;;4.88;3.63;;;11.60;99.90;;;;;;5076970;28;20024;-61
2022/05/01 06:12:43;;;;;;;6.93;3.67;;;11.40;99.90;;;;;;5077160;28;20073;-64
2022/05/01 06:15:09;;;;;;;8.38;3.80;;;11.50;99.90;;;;;;5095330;28;20070;-59
2022/05/01 06:17:35;;;;;;;8.85;4.03;;;11.60;99.90;;;;;;5077109;28;20107;-59
2022/05/01 06:20:01;;;;;;;10.82;5.72;;;11.70;99.90;;;;;;5076986;28;20063;-59
2022/05/01 06:22:27;;;;;;;5.65;3.30;;;11.70;99.90;;;;;;5095033;28;20032;-60
2022/05/01 06:24:53;;;;;;;5.57;3.70;;;11.80;99.90;;;;;;5095360;28;20078;-58
2022/05/01 06:27:18;;;;;;;6.75;3.60;;;11.90;99.90;;;;;;5076745;28;20024;-60
2022/05/01 06:29:44;;;;;;;7.35;3.50;;;12.00;99.90;;;;;;5077105;28;20024;-60
2022/05/01 06:32:10;;;;;;;11.77;4.03;;;12.00;99.90;;;;;;5077472;28;20024;-59
2022/05/01 06:34:37;;;;;;;9.80;3.78;;;12.00;99.90;;;;;;5094870;28;20023;-59
2022/05/01 06:37:03;;;;;;;6.45;3.38;;;11.80;99.90;;;;;;5094776;28;20024;-60
2022/05/01 06:39:29;;;;;;;4.65;3.58;;;12.00;99.90;;;;;;5095579;28;20095;-60
2022/05/01 06:41:54;;;;;;;5.97;3.47;;;12.00;99.90;;;;;;5094670;28;20099;-59
2022/05/01 06:44:20;;;;;;;7.60;4.00;;;12.00;99.90;;;;;;5076705;28;20027;-59
2022/05/01 06:46:46;;;;;;;8.68;3.90;;;12.20;99.90;;;;;;5076619;28;20521;-60
2022/05/01 06:49:11;;;;;;;6.47;3.97;;;12.20;99.90;;;;;;5077516;28;20062;-60
2022/05/01 06:51:37;;;;;;;6.68;3.83;;;12.10;99.90;;;;;;5076108;28;20028;-60
2022/05/01 06:54:06;;;;;;;6.93;3.83;;;11.90;99.90;;;;;;5094755;28;20027;-60
2022/05/01 06:56:32;;;;;;;5.80;3.70;;;11.80;99.90;;;;;;5094433;28;20013;-60
2022/05/01 06:58:57;;;;;;;10.05;4.20;;;11.90;99.90;;;;;;5094325;28;20027;-60
2022/05/01 07:01:23;;;;;;;7.28;3.85;;;11.90;99.90;;;;;;5094466;28;20028;-60
2022/05/01 07:03:48;;;;;;;8.60;3.65;;;11.90;99.90;;;;;;5076077;28;20127;-60
2022/05/01 07:06:14;;;;;;;4.93;3.28;;;12.00;99.90;;;;;;5094030;28;20089;-60
2022/05/01 07:08:39;;;;;;;6.32;4.07;;;12.20;99.90;;;;;;5076115;28;20028;-60
2022/05/01 07:11:05;;;;;;;4.53;3.17;;;12.40;99.90;;;;;;5094179;28;20084;-59
2022/05/01 07:13:31;;;;;;;5.35;3.40;;;12.60;99.90;;;;;;5076233;28;20016;-60
2022/05/01 07:15:56;;;;;;;11.00;3.42;;;12.80;99.90;;;;;;5094053;28;20023;-60
2022/05/01 07:18:23;;;;;;;7.10;3.53;;;12.90;99.90;;;;;;5094354;28;20016;-60
2022/05/01 07:20:48;;;;;;;8.23;3.78;;;12.90;99.90;;;;;;5076137;28;20020;-60
2022/05/01 07:23:14;;;;;;;6.60;3.75;;;13.10;99.90;;;;;;5093921;28;20039;-60
2022/05/01 07:25:40;;;;;;;8.20;3.85;;;13.10;99.90;;;;;;5075756;28;20027;-60
2022/05/01 07:28:05;;;;;;;8.45;3.47;;;13.00;99.90;;;;;;5075852;28;20036;-60
2022/05/01 07:30:31;;;;;;;7.82;3.88;;;12.90;99.90;;;;;;5075721;28;20028;-60
2022/05/01 07:32:58;;;;;;;5.38;4.05;;;13.00;99.90;;;;;;5075655;28;20076;-60
2022/05/01 07:35:24;;;;;;;5.63;3.08;;;12.90;99.90;;;;;;5076018;28;20105;-58
2022/05/01 07:38:07;;;;;;;9.15;4.50;;;13.10;99.90;;;;;;5075932;28;20054;-58
2022/05/01 07:40:33;;;;;;;7.47;3.75;;;13.30;99.90;;;;;;5093813;28;20023;-60
2022/05/01 07:42:58;;;;;;;5.78;3.22;;;13.50;99.90;;;;;;5093699;28;20017;-59
2022/05/01 07:45:24;;;;;;;7.18;4.30;;;13.70;99.90;;;;;;5093697;28;20020;-60
2022/05/01 07:47:50;;;;;;;5.82;3.70;;;13.50;99.90;;;;;;5093611;28;20027;-60
2022/05/01 07:50:17;;;;;;;4.13;3.63;;;13.40;99.90;;;;;;5075529;28;20028;-60
2022/05/01 07:52:43;;;;;;;7.43;3.90;;;13.60;99.90;;;;;;5093759;28;20024;-59
2022/05/01 07:55:09;;;;;;;7.05;4.15;;;13.60;99.90;;;;;;5075894;28;20114;-60
2022/05/01 07:57:34;;;;;;;9.65;4.22;;;13.50;99.90;;;;;;5075742;28;20016;-60
2022/05/01 08:00:00;;;;;;;8.88;4.35;;;13.30;99.90;;;;;;5075780;28;20030;-60
2022/05/01 08:04:27;;;;;;;8.10;4.15;;;13.30;99.90;;;;;;5093441;28;20074;-60
2022/05/01 08:05:23;;;;;;;7.90;4.68;;;13.20;99.90;;;;;;5092978;28;20502;-60
2022/05/01 08:07:52;;;;;;;7.93;3.70;;;13.00;99.90;;;;;;5075543;28;20028;-60
2022/05/01 08:10:17;;;;;;;7.43;4.00;;;13.10;99.90;;;;;;5093258;28;20024;-61
2022/05/01 08:12:43;;;;;;;9.75;4.53;;;13.30;99.90;;;;;;5075701;28;20114;-60
2022/05/01 08:15:09;;;;;;;7.97;4.43;;;13.30;99.90;;;;;;5093248;28;20390;-60
2022/05/01 08:17:35;;;;;;;11.15;4.63;;;13.30;99.90;;;;;;5093447;28;20020;-60
2022/05/01 08:22:44;;;;;;;6.10;4.05;;;13.20;99.90;;;;;;5093720;28;20040;-60
2022/05/01 08:25:11;;;;;;;8.77;4.13;;;13.30;99.90;;;;;;5075464;28;20024;-60
2022/05/01 08:27:37;;;;;;;8.40;4.03;;;13.20;99.90;;;;;;5075019;28;20020;-60
2022/05/01 08:30:03;;;;;;;10.43;3.28;;;13.30;99.90;;;;;;5075112;28;20020;-61
2022/05/01 08:32:29;;;;;;;7.78;4.07;;;13.50;99.90;;;;;;5074989;28;20020;-60
2022/05/01 08:34:55;;;;;;;8.07;3.60;;;13.50;99.90;;;;;;5093353;28;20027;-60
2022/05/01 08:37:20;;;;;;;7.35;4.03;;;13.40;99.90;;;;;;5075134;28;20394;-60
2022/05/01 08:39:46;;;;;;;8.23;5.00;;;13.50;99.90;;;;;;5093549;28;20060;-60
2022/05/01 08:42:11;;;;;;;11.70;4.90;;;13.80;99.90;;;;;;5093424;28;20028;-58
2022/05/01 08:44:37;;;;;;;8.52;3.90;;;13.80;99.90;;;;;;5075449;28;20087;-61
2022/05/01 08:47:22;;;;;;;7.63;3.92;;;13.90;99.90;;;;;;5093328;28;20027;-58
2022/05/01 08:49:54;;;;;;;8.35;3.85;;;14.00;99.90;;;;;;5076010;28;20028;-60
2022/05/01 08:52:22;;;;;;;8.48;4.03;;;14.20;99.90;;;;;;5078629;28;20024;-60
2022/05/01 08:54:49;;;;;;;8.00;3.70;;;14.20;99.90;;;;;;5096762;28;20058;-60
2022/05/01 08:57:19;;;;;;;10.05;5.53;;;14.10;99.90;;;;;;5079255;28;20028;-60
2022/05/01 08:59:46;;;;;;;8.77;4.28;;;14.50;99.90;;;;;;5078788;28;20016;-59
2022/05/01 09:02:11;;;;;;;9.23;3.85;;;14.80;99.90;;;;;;5079313;28;20020;-58
2022/05/01 09:04:38;;;;;;;9.88;4.90;;;15.20;99.90;;;;;;5078430;28;20077;-59
2022/05/01 09:07:04;;;;;;;7.72;4.22;;;15.40;99.90;;;;;;5096634;28;20024;-59
2022/05/01 09:09:30;;;;;;;10.55;4.07;;;15.80;99.90;;;;;;5096432;28;20028;-57
2022/05/01 09:14:41;;;;;;;9.68;4.60;;;16.10;99.90;;;;;;5096576;28;20027;-59
2022/05/01 09:17:20;;;;;;;9.07;4.20;;;16.50;99.90;;;;;;5078171;28;20052;-58
2022/05/01 09:19:48;;;;;;;7.63;3.40;;;17.00;99.90;;;;;;5078283;28;20020;-59
2022/05/01 09:22:15;;;;;;;9.82;4.60;;;17.50;99.90;;;;;;5078123;28;20110;-59
2022/05/01 09:24:41;;;;;;;5.65;4.40;;;17.80;99.90;;;;;;5078017;28;20016;-57
2022/05/01 09:27:21;;;;;;;7.18;4.47;;;18.40;99.90;;;;;;5079094;28;20023;-58
2022/05/01 09:29:47;;;;;;;8.70;5.25;;;18.40;99.90;;;;;;5078709;28;20028;-61
2022/05/01 09:32:13;;;;;;;8.50;4.55;;;18.70;99.90;;;;;;5096171;28;20036;-62
2022/05/01 09:34:39;;;;;;;5.38;3.85;;;18.90;99.90;;;;;;5078529;28;20087;-60
2022/05/01 09:37:18;;;;;;;6.32;3.58;;;19.20;99.90;;;;;;5095856;28;20024;-61
2022/05/01 09:39:49;;;;;;;6.90;4.10;;;19.60;99.90;;;;;;5078312;28;20024;-61
2022/05/01 09:42:18;;;;;;;7.55;3.70;;;19.60;99.90;;;;;;5095740;28;20035;-61
2022/05/01 09:45:01;;;;;;;6.50;4.22;;;19.70;99.90;;;;;;5078048;28;20028;-60
2022/05/01 09:47:37;;;;;;;6.35;4.18;;;18.90;99.90;;;;;;5077770;28;20024;-60
2022/05/01 09:50:05;;;;;;;8.20;4.45;;;18.70;99.90;;;;;;5095537;28;20020;-60
2022/05/01 09:52:53;;;;;;;6.90;4.07;;;19.00;99.90;;;;;;5077862;28;20036;-63
2022/05/01 09:55:18;;;;;;;11.15;4.57;;;19.50;99.90;;;;;;5095546;28;20024;-61
2022/05/01 09:57:44;;;;;;;6.93;3.90;;;20.00;99.90;;;;;;5077341;28;20027;-61
2022/05/01 10:00:10;;;;;;;8.13;4.63;;;20.40;99.90;;;;;;5077652;28;20486;-61
2022/05/01 10:02:36;;;;;;;6.57;3.78;;;20.50;99.90;;;;;;5076226;28;20385;-61
2022/05/01 10:05:06;;;;;;;8.27;4.63;;;20.40;99.90;;;;;;5077310;28;20115;-61
2022/05/01 10:07:38;;;;;;;7.35;4.47;;;20.50;99.90;;;;;;5077851;28;20020;-61
2022/05/01 10:10:08;;;;;;;9.20;4.60;;;20.50;99.90;;;;;;5078100;28;20020;-62
2022/05/01 10:12:41;;;;;;;7.47;4.65;;;21.00;99.90;;;;;;5077192;28;20026;-59
2022/05/01 10:15:08;;;;;;;7.05;4.97;;;20.80;99.90;;;;;;5077362;28;20020;-58
2022/05/01 10:17:43;;;;;;;7.53;4.20;;;20.10;99.90;;;;;;5077627;28;20088;-53
2022/05/01 10:20:10;;;;;;;8.25;5.18;;;20.20;99.90;;;;;;5095380;28;20023;-60
2022/05/01 10:22:36;;;;;;;9.00;5.10;;;20.50;99.90;;;;;;5076746;28;20024;-58
2022/05/01 10:25:03;;;;;;;8.20;4.38;;;20.50;99.90;;;;;;5095583;28;20024;-54
2022/05/01 10:27:47;;;;;;;7.90;4.30;;;20.60;99.90;;;;;;5077435;28;20024;-56
2022/05/01 10:33:07;;;;;;;10.05;4.85;;;21.20;99.90;;;;;;5095097;28;20027;-62
2022/05/01 10:35:53;;;;;;;6.75;3.90;;;21.20;99.90;;;;;;5076689;28;20054;-56
2022/05/01 10:38:24;;;;;;;7.53;4.35;;;21.00;99.90;;;;;;5077578;28;20031;-58
2022/05/01 10:40:55;;;;;;;7.65;4.10;;;21.00;99.90;;;;;;5077374;28;20356;-54
2022/05/01 10:43:37;;;;;;;8.98;5.22;;;21.20;99.90;;;;;;5094599;28;20550;-58
2022/05/01 10:46:21;;;;;;;;;;;21.10;99.90;;;;;;5076824;28;20039;-60
2022/05/01 10:48:47;;;;;;;10.60;4.50;;;20.30;99.90;;;;;;5076292;28;19911;-57
2022/05/01 10:51:41;;;;;;;10.55;4.35;;;20.10;99.90;;;;;;5076225;28;20020;-59
2022/05/01 10:54:10;;;;;;;9.65;6.05;;;20.30;99.90;;;;;;5076410;28;20039;-58
2022/05/01 10:56:37;;;;;;;20.58;12.30;;;20.20;99.90;;;;;;5094756;28;20031;-58
2022/05/01 10:59:31;;;;;;;10.27;6.22;;;19.70;99.90;;;;;;5076487;28;20032;-60
2022/05/01 11:02:00;;;;;;;9.00;5.47;;;19.40;99.90;;;;;;5077187;28;20059;-58
2022/05/01 11:04:36;;;;;;;7.85;4.45;;;19.50;99.90;;;;;;5094151;28;20024;-49
2022/05/01 11:07:04;;;;;;;6.13;4.78;;;19.20;99.90;;;;;;5094479;28;20016;-63
2022/05/01 11:09:34;;;;;;;12.52;3.50;;;19.30;99.90;;;;;;5094738;28;20550;-59
2022/05/01 11:12:01;;;;;;;13.50;6.70;;;20.00;99.90;;;;;;5075941;28;20184;-58
2022/05/01 11:14:56;;;;;;;9.80;5.65;;;20.30;99.90;;;;;;5075747;28;20165;-56
2022/05/01 11:17:37;;;;;;;7.78;5.03;;;19.60;99.90;;;;;;5075964;28;20521;-58
2022/05/01 11:20:25;;;;;;;11.63;5.57;;;18.90;99.90;;;;;;5094526;28;20099;-63
2022/05/01 11:23:38;;;;;;;11.57;5.75;;;18.30;99.90;;;;;;5066399;28;20032;-56
2022/05/01 11:26:17;;;;;;;7.20;4.75;;;18.40;99.90;;;;;;5075818;28;20016;-57
2022/05/01 11:28:49;;;;;;;7.70;3.65;;;19.00;99.90;;;;;;5093931;28;20023;-56
2022/05/01 11:31:38;;;;;;;8.57;5.45;;;19.40;99.90;;;;;;5093775;28;20028;-53
2022/05/01 11:34:24;;;;;;;12.77;5.32;;;19.10;99.90;;;;;;5093845;28;20027;-59
2022/05/01 11:37:03;;;;;;;13.57;4.40;;;18.50;99.90;;;;;;5093756;28;20051;-62
2022/05/01 11:39:50;;;;;;;8.23;4.13;;;18.50;99.90;;;;;;5076392;28;20031;-62
2022/05/01 11:42:32;;;;;;;7.85;3.35;;;18.80;99.90;;;;;;5075963;28;20020;-62
2022/05/01 11:45:00;;;;;;;6.85;4.05;;;19.30;99.90;;;;;;5093860;28;20066;-61
2022/05/01 11:47:33;;;;;;;8.90;4.68;;;19.70;99.90;;;;;;5075604;28;20070;-65
2022/05/01 11:50:00;;;;;;;9.93;4.50;;;19.70;99.90;;;;;;5093562;28;20020;-61
2022/05/01 11:52:26;;;;;;;10.75;4.50;;;19.60;99.90;;;;;;5075509;28;20055;-62
2022/05/01 11:54:59;;;;;;;5.30;3.10;;;19.50;99.90;;;;;;5076486;28;20106;-55
2022/05/01 12:03:02;;;;;;;11.23;5.22;;;19.30;99.90;;;;;;5093691;28;20046;-62
2022/05/01 12:05:33;;;;;;;10.13;5.07;;;19.00;99.90;;;;;;5075352;28;20075;-59
2022/05/01 12:07:59;;;;;;;7.60;3.92;;;18.50;99.90;;;;;;5076498;28;20027;-56
2022/05/01 12:10:28;;;;;;;11.55;6.07;;;18.90;99.90;;;;;;5075149;28;20055;-65
2022/05/01 12:12:54;;;;;;;11.30;5.32;;;19.20;99.90;;;;;;5093252;28;20070;-62
2022/05/01 12:15:19;;;;;;;13.35;5.85;;;19.40;99.90;;;;;;5093555;28;20024;-59
2022/05/01 12:17:45;;;;;;;10.43;5.57;;;19.00;99.90;;;;;;5093278;28;20070;-62
2022/05/01 12:20:11;;;;;;;12.45;5.28;;;18.60;99.90;;;;;;5093251;28;20028;-60
2022/05/01 12:22:38;;;;;;;4.50;3.42;;;18.80;99.90;;;;;;5093216;28;20097;-67
2022/05/01 12:25:06;;;;;;;12.70;5.07;;;19.10;99.90;;;;;;5093362;28;20020;-62
2022/05/01 12:27:35;;;;;;;9.88;5.68;;;18.90;99.90;;;;;;5097406;28;20032;-63
2022/05/01 12:30:05;;;;;;;6.53;4.00;;;18.90;99.90;;;;;;5079285;28;20024;-63
2022/05/01 12:32:31;;;;;;;8.63;4.28;;;18.90;99.90;;;;;;5097162;28;20020;-62
2022/05/01 12:35:00;;;;;;;7.45;4.25;;;19.20;99.90;;;;;;5097374;28;20020;-60
2022/05/01 12:37:36;;;;;;;9.73;4.80;;;19.50;99.90;;;;;;5078893;28;20024;-62
2022/05/01 12:43:50;;;;;;;12.52;5.38;;;19.50;99.90;;;;;;5096998;28;20024;-62
2022/05/01 12:45:45;;;;;;;12.55;5.68;;;19.00;99.90;;;;;;5097154;28;20035;-61
2022/05/01 12:48:13;;;;;;;8.75;5.45;;;18.80;99.90;;;;;;5079572;28;20016;-62
2022/05/01 12:50:40;;;;;;;5.30;4.22;;;18.50;99.90;;;;;;5078588;28;20031;-62
2022/05/01 12:53:27;;;;;;;8.40;4.85;;;18.40;99.90;;;;;;5096767;28;20390;-62
2022/05/01 12:55:54;;;;;;;7.53;4.70;;;18.80;99.90;;;;;;5096663;28;20012;-62
2022/05/01 12:58:27;;;;;;;10.30;5.95;;;19.10;99.90;;;;;;5078968;28;20024;-64
2022/05/01 13:00:53;;;;;;;5.63;3.53;;;19.20;99.90;;;;;;5096770;28;20031;-62
2022/05/01 13:03:39;;;;;;;9.05;4.32;;;19.40;99.90;;;;;;5079104;28;20032;-63
2022/05/01 13:06:16;;;;;;;7.45;4.93;;;19.70;99.90;;;;;;5096417;28;20032;-60
2022/05/01 13:08:45;;;;;;;13.27;4.07;;;19.40;99.90;;;;;;5096406;28;20024;-58
2022/05/01 13:11:23;;;;;;;10.50;5.57;;;19.50;99.90;;;;;;5096222;28;20024;-65
2022/05/01 13:13:53;;;;;;;8.13;5.07;;;19.10;99.90;;;;;;5096340;28;20024;-59
2022/05/01 13:16:23;;;;;;;10.02;5.60;;;19.00;99.90;;;;;;5078195;28;20047;-56
2022/05/01 13:18:51;;;;;;;9.35;5.22;;;18.70;99.90;;;;;;5096307;28;20016;-57
2022/05/01 13:21:17;;;;;;;8.80;4.80;;;18.70;99.90;;;;;;5096367;28;20072;-56
2022/05/01 13:23:42;;;;;;;6.90;4.45;;;18.60;99.90;;;;;;5078014;28;20024;-59
2022/05/01 13:26:09;;;;;;;8.80;6.22;;;18.90;99.90;;;;;;5078658;28;20039;-55
2022/05/01 13:29:12;;;;;;;9.00;4.50;;;18.90;99.90;;;;;;5096151;28;20028;-59
2022/05/01 13:31:40;;;;;;;14.60;5.72;;;18.90;99.90;;;;;;5077918;28;20020;-58